Time;durP1;ratioP1;P1;durP2;ratioP2;P2;SDS_P1;SDS_P2;PMS_P1;PMS_P2;Temp;Humidity;BMP_temperature;BMP_pressure;BME280_temperature;BME280_humidity;BME280_pressure;Samples;Min_cycle;Max_cycle;Signal;HPM_P1;HPM_P2
2022/05/15 00:00:37;;;;;;;5.77;5.47;;;20.50;45.10;;;;;;5016486;28;20442;-57
2022/05/15 00:00:38;;;;;;;5.90;5.60;;;20.50;45.10;;;;;;5018539;28;20483;-57
2022/05/15 00:03:24;;;;;;;5.97;5.60;;;20.50;45.10;;;;;;5009412;28;20516;-57
2022/05/15 00:05:53;;;;;;;6.30;5.80;;;20.50;45.10;;;;;;5016596;28;20472;-58
2022/05/15 00:08:20;;;;;;;5.50;5.30;;;20.50;45.10;;;;;;5015344;28;20453;-57
2022/05/15 00:10:46;;;;;;;6.00;5.70;;;20.50;45.10;;;;;;5015585;28;20454;-57
2022/05/15 00:13:12;;;;;;;5.77;5.47;;;20.50;45.10;;;;;;5020703;28;20441;-57
2022/05/15 00:15:39;;;;;;;7.50;6.83;;;20.50;45.10;;;;;;5015834;28;20452;-57
2022/05/15 00:18:06;;;;;;;6.53;6.17;;;20.50;45.10;;;;;;5012544;28;20296;-57
2022/05/15 00:20:32;;;;;;;6.10;5.70;;;20.50;45.90;;;;;;5019433;28;20940;-57
2022/05/15 00:22:58;;;;;;;6.27;5.87;;;20.50;45.10;;;;;;5019438;28;20985;-57
2022/05/15 00:25:23;;;;;;;6.40;5.90;;;20.50;45.10;;;;;;5013589;28;20474;-57
2022/05/15 00:27:49;;;;;;;6.57;6.03;;;20.50;45.10;;;;;;5017060;28;20219;-57
2022/05/15 00:30:17;;;;;;;6.10;5.77;;;20.50;45.10;;;;;;5018592;28;20224;-56
2022/05/15 00:32:42;;;;;;;5.97;5.60;;;20.50;45.10;;;;;;5014341;28;20243;-57
2022/05/15 00:35:08;;;;;;;6.47;6.17;;;20.50;45.10;;;;;;5017536;28;20469;-57
2022/05/15 00:37:34;;;;;;;6.60;6.07;;;20.50;45.10;;;;;;5019360;28;20696;-56
2022/05/15 00:39:59;;;;;;;6.40;6.10;;;20.50;45.10;;;;;;5013037;28;20788;-57
2022/05/15 00:42:25;;;;;;;6.70;6.30;;;20.50;45.10;;;;;;5016570;28;20697;-57
2022/05/15 00:44:51;;;;;;;6.20;5.90;;;20.50;45.10;;;;;;5014600;28;20220;-57
2022/05/15 00:47:17;;;;;;;5.93;5.63;;;20.50;45.10;;;;;;5019695;28;20227;-57
2022/05/15 00:49:43;;;;;;;6.30;6.00;;;20.50;45.10;;;;;;5017378;28;20445;-57
2022/05/15 00:52:13;;;;;;;6.20;5.83;;;20.50;45.90;;;;;;5017438;28;20503;-57
2022/05/15 00:54:45;;;;;;;6.07;5.70;;;20.50;45.10;;;;;;5014998;28;20220;-57
2022/05/15 00:57:26;;;;;;;6.00;5.60;;;20.50;45.10;;;;;;5018381;28;20489;-57
2022/05/15 01:00:09;;;;;;;6.57;6.00;;;20.50;45.10;;;;;;5017942;28;20995;-57
2022/05/15 01:02:40;;;;;;;6.70;6.30;;;20.40;45.00;;;;;;5014079;28;20480;-58
2022/05/15 01:05:09;;;;;;;6.53;6.23;;;20.50;45.10;;;;;;5020166;28;20887;-57
2022/05/15 01:07:34;;;;;;;6.77;6.33;;;20.40;45.00;;;;;;5013102;28;20527;-57
2022/05/15 01:10:01;;;;;;;7.00;6.53;;;20.50;45.10;;;;;;5012958;28;20532;-57
2022/05/15 01:12:28;;;;;;;6.57;6.17;;;20.40;45.10;;;;;;5021028;28;20657;-57
2022/05/15 01:14:54;;;;;;;6.50;6.10;;;20.40;45.00;;;;;;5010357;28;21041;-57
2022/05/15 01:17:19;;;;;;;6.00;5.70;;;20.40;45.00;;;;;;5017402;28;20544;-57
2022/05/15 01:19:45;;;;;;;6.40;5.90;;;20.40;45.00;;;;;;5014668;28;20592;-57
2022/05/15 01:22:15;;;;;;;7.07;6.67;;;20.40;45.00;;;;;;5018013;28;20293;-57
2022/05/15 01:24:42;;;;;;;6.73;6.30;;;20.40;45.00;;;;;;5018871;28;20220;-57
2022/05/15 01:27:11;;;;;;;6.40;6.00;;;20.40;45.00;;;;;;5015995;28;20460;-57
2022/05/15 01:29:43;;;;;;;6.17;5.67;;;20.40;45.00;;;;;;5013267;28;20510;-57
2022/05/15 01:32:10;;;;;;;6.10;5.70;;;20.40;45.00;;;;;;5018866;28;20448;-57
2022/05/15 01:34:35;;;;;;;6.47;5.97;;;20.40;45.00;;;;;;5017291;28;20428;-58
2022/05/15 01:37:01;;;;;;;5.93;5.60;;;20.40;45.00;;;;;;5013073;28;21000;-57
2022/05/15 01:39:28;;;;;;;5.90;5.60;;;20.40;45.00;;;;;;5017061;28;20294;-57
2022/05/15 01:41:54;;;;;;;6.33;5.97;;;20.40;45.00;;;;;;5015174;28;20322;-57
2022/05/15 01:44:20;;;;;;;5.13;4.93;;;20.40;45.00;;;;;;5017676;28;21007;-57
2022/05/15 01:46:45;;;;;;;5.57;5.27;;;20.50;45.10;;;;;;5014204;28;20224;-57
2022/05/15 01:49:11;;;;;;;6.47;6.10;;;20.40;45.00;;;;;;5016775;28;20227;-57
2022/05/15 01:51:40;;;;;;;6.50;6.10;;;20.40;45.00;;;;;;5011673;28;20232;-57
2022/05/15 01:54:06;;;;;;;6.50;6.10;;;20.40;45.00;;;;;;5015889;28;20258;-56
2022/05/15 01:56:32;;;;;;;5.80;5.50;;;20.40;45.00;;;;;;5017251;28;20780;-57
2022/05/15 01:58:58;;;;;;;5.80;5.50;;;20.40;45.00;;;;;;5016130;28;20438;-57
2022/05/15 02:01:24;;;;;;;6.33;6.00;;;20.40;45.00;;;;;;5015678;28;20436;-57
2022/05/15 02:03:50;;;;;;;5.83;5.53;;;20.40;45.00;;;;;;5013278;28;20449;-57
2022/05/15 02:06:16;;;;;;;5.93;5.50;;;20.40;45.00;;;;;;5012066;28;20235;-57
2022/05/15 02:08:42;;;;;;;5.63;5.43;;;20.40;45.00;;;;;;5014376;28;20360;-57
2022/05/15 02:11:08;;;;;;;5.20;5.00;;;20.40;45.00;;;;;;5023913;28;20450;-57
2022/05/15 02:13:34;;;;;;;5.87;5.57;;;20.40;45.00;;;;;;5018431;28;20843;-58
2022/05/15 02:16:01;;;;;;;5.17;4.87;;;20.40;45.00;;;;;;5021905;28;20479;-56
2022/05/15 02:18:27;;;;;;;5.90;5.50;;;20.40;45.00;;;;;;5022149;28;20254;-57
2022/05/15 02:20:53;;;;;;;5.93;5.53;;;20.40;45.00;;;;;;5018290;28;20493;-57
2022/05/15 02:23:19;;;;;;;6.30;5.90;;;20.40;45.00;;;;;;5019235;28;20219;-57
2022/05/15 02:25:47;;;;;;;5.57;5.27;;;20.40;45.00;;;;;;5020089;28;20809;-57
2022/05/15 02:28:13;;;;;;;5.93;5.63;;;20.40;45.00;;;;;;5018331;28;20676;-57
2022/05/15 02:30:39;;;;;;;5.80;5.40;;;20.40;45.00;;;;;;5020099;28;20440;-57
2022/05/15 02:33:05;;;;;;;5.00;4.70;;;20.40;45.00;;;;;;5020230;28;20216;-57
2022/05/15 02:35:31;;;;;;;5.63;5.23;;;20.40;45.00;;;;;;5022747;28;20497;-57
2022/05/15 02:37:57;;;;;;;5.43;5.13;;;20.40;45.80;;;;;;5016007;28;20568;-57
2022/05/15 02:40:24;;;;;;;5.40;5.10;;;20.40;45.00;;;;;;5018777;28;20961;-57
2022/05/15 02:42:51;;;;;;;4.60;4.40;;;20.40;45.00;;;;;;5017737;28;20245;-56
2022/05/15 02:45:17;;;;;;;5.90;5.60;;;20.40;45.00;;;;;;5020382;28;20449;-57
2022/05/15 02:47:42;;;;;;;5.43;5.03;;;20.40;45.80;;;;;;5018047;28;20445;-57
2022/05/15 02:52:54;;;;;;;5.57;5.27;;;20.40;45.00;;;;;;5018709;28;20230;-57
2022/05/15 02:55:21;;;;;;;5.63;5.33;;;20.40;45.00;;;;;;5021083;28;20456;-57
2022/05/15 02:57:47;;;;;;;4.70;4.50;;;20.40;45.00;;;;;;5020794;28;20442;-57
2022/05/15 03:00:13;;;;;;;5.17;4.97;;;20.40;45.00;;;;;;5017792;28;20490;-58
2022/05/15 03:02:40;;;;;;;5.43;5.03;;;20.40;45.00;;;;;;5019517;28;20448;-57
2022/05/15 03:05:07;;;;;;;5.80;5.43;;;20.40;45.00;;;;;;5018553;28;20811;-57
2022/05/15 03:07:34;;;;;;;4.90;4.60;;;20.40;45.00;;;;;;5021104;28;20435;-57
2022/05/15 03:10:00;;;;;;;5.60;5.40;;;20.40;45.00;;;;;;5018672;28;20506;-57
2022/05/15 03:12:26;;;;;;;4.50;4.30;;;20.40;45.00;;;;;;5014385;28;20949;-58
2022/05/15 03:14:52;;;;;;;4.80;4.60;;;20.40;45.00;;;;;;5019216;28;20435;-57
2022/05/15 03:17:17;;;;;;;4.93;4.63;;;20.40;45.00;;;;;;5015236;28;20219;-57
2022/05/15 03:19:44;;;;;;;4.67;4.37;;;20.40;45.00;;;;;;5011391;28;20464;-57
2022/05/15 03:22:09;;;;;;;5.53;5.20;;;20.40;45.00;;;;;;5021034;28;20259;-57
2022/05/15 03:24:35;;;;;;;4.80;4.60;;;20.40;45.00;;;;;;5021204;28;20480;-60
2022/05/15 03:27:01;;;;;;;4.23;4.03;;;20.40;45.00;;;;;;5010175;28;20378;-58
2022/05/15 03:29:27;;;;;;;5.17;4.97;;;20.40;45.00;;;;;;5017486;28;20595;-56
2022/05/15 03:31:52;;;;;;;4.97;4.67;;;20.40;45.00;;;;;;5015057;28;20677;-57
2022/05/15 03:34:18;;;;;;;4.73;4.53;;;20.40;45.00;;;;;;5017351;28;20238;-57
2022/05/15 03:36:46;;;;;;;4.67;4.37;;;20.40;45.00;;;;;;5018785;28;20575;-57
2022/05/15 03:39:13;;;;;;;4.93;4.63;;;20.40;45.00;;;;;;5018348;28;20277;-57
2022/05/15 03:41:39;;;;;;;5.40;4.80;;;20.40;45.00;;;;;;5015623;28;20507;-57
2022/05/15 03:44:06;;;;;;;4.67;4.37;;;20.40;45.00;;;;;;5020436;28;20555;-56
2022/05/15 03:46:32;;;;;;;4.53;4.33;;;20.40;45.00;;;;;;5017270;28;20231;-57
2022/05/15 03:48:58;;;;;;;4.60;4.30;;;20.40;45.10;;;;;;5014008;28;20481;-57
2022/05/15 03:51:23;;;;;;;4.50;4.30;;;20.40;45.00;;;;;;5023116;28;20231;-56
2022/05/15 03:53:50;;;;;;;5.10;4.90;;;20.40;45.00;;;;;;5015655;28;20591;-57
2022/05/15 03:56:16;;;;;;;4.90;4.60;;;20.40;45.00;;;;;;5015803;28;20238;-56
2022/05/15 03:58:43;;;;;;;5.03;4.60;;;20.40;45.00;;;;;;5018322;28;21042;-57
2022/05/15 04:01:09;;;;;;;4.40;4.20;;;20.40;45.00;;;;;;5017023;28;20472;-57
2022/05/15 04:03:35;;;;;;;4.80;4.60;;;20.40;45.00;;;;;;5013382;28;20525;-57
2022/05/15 04:06:01;;;;;;;4.87;4.57;;;20.40;45.00;;;;;;5021234;28;20518;-56
2022/05/15 04:08:27;;;;;;;5.60;5.20;;;20.40;45.00;;;;;;5018684;28;20230;-57
2022/05/15 04:10:55;;;;;;;4.93;4.73;;;20.40;45.00;;;;;;5019515;28;20461;-57
2022/05/15 04:13:21;;;;;;;4.70;4.40;;;20.40;45.00;;;;;;5019098;28;20528;-56
2022/05/15 04:15:47;;;;;;;4.23;4.03;;;20.40;45.00;;;;;;5014680;28;20538;-57
2022/05/15 04:18:12;;;;;;;4.37;4.07;;;20.40;45.00;;;;;;5015479;28;20541;-57
2022/05/15 04:20:38;;;;;;;4.20;3.90;;;20.40;45.00;;;;;;5022703;28;20605;-57
2022/05/15 04:23:03;;;;;;;4.10;3.90;;;20.40;45.00;;;;;;5018125;28;20251;-57
2022/05/15 04:25:29;;;;;;;5.00;4.70;;;20.40;45.00;;;;;;5013901;28;20298;-57
2022/05/15 04:27:55;;;;;;;4.83;4.40;;;20.40;45.00;;;;;;5018661;28;20754;-57
2022/05/15 04:30:24;;;;;;;4.70;4.40;;;20.40;45.00;;;;;;5015168;28;20228;-57
2022/05/15 04:32:53;;;;;;;4.53;4.13;;;20.40;45.00;;;;;;5014207;28;20227;-56
2022/05/15 04:35:21;;;;;;;4.80;4.37;;;20.40;45.00;;;;;;5019745;28;20464;-57
2022/05/15 04:37:46;;;;;;;4.00;3.80;;;20.40;45.00;;;;;;5012952;28;20528;-57
2022/05/15 04:40:13;;;;;;;4.60;4.30;;;20.30;45.00;;;;;;5016069;28;20464;-57
2022/05/15 04:42:39;;;;;;;4.63;4.43;;;20.40;45.00;;;;;;5018779;28;20262;-57
2022/05/15 04:45:05;;;;;;;4.67;4.37;;;20.40;45.00;;;;;;5019826;28;20508;-57
2022/05/15 04:47:32;;;;;;;4.57;4.27;;;20.40;45.00;;;;;;5012554;28;20455;-57
2022/05/15 04:49:58;;;;;;;4.20;4.00;;;20.40;45.00;;;;;;5018368;28;20442;-57
2022/05/15 04:52:24;;;;;;;4.70;4.40;;;20.40;45.10;;;;;;5014300;28;20488;-56
2022/05/15 04:54:49;;;;;;;4.73;4.43;;;20.40;45.00;;;;;;5013551;28;20701;-56
2022/05/15 04:57:15;;;;;;;5.07;4.87;;;20.40;45.00;;;;;;5017866;28;20228;-56
2022/05/15 04:59:40;;;;;;;4.27;4.07;;;20.40;45.00;;;;;;5014745;28;20231;-56
2022/05/15 05:02:06;;;;;;;4.87;4.67;;;20.40;45.00;;;;;;5015110;28;20317;-57
2022/05/15 05:04:32;;;;;;;4.90;4.60;;;20.30;45.00;;;;;;5019687;28;20228;-57
2022/05/15 05:06:57;;;;;;;4.40;4.20;;;20.30;45.00;;;;;;5018823;28;20220;-56
2022/05/15 05:09:25;;;;;;;4.70;4.40;;;20.40;45.00;;;;;;5012849;28;20227;-56
2022/05/15 05:11:50;;;;;;;4.37;4.17;;;20.30;45.00;;;;;;5016995;28;20223;-57
2022/05/15 05:14:16;;;;;;;4.90;4.57;;;20.40;45.00;;;;;;5015377;28;20438;-56
2022/05/15 05:16:42;;;;;;;4.93;4.63;;;20.40;45.00;;;;;;5014019;28;20234;-56
2022/05/15 05:19:07;;;;;;;4.53;4.23;;;20.30;45.00;;;;;;5016995;28;20936;-57
2022/05/15 05:21:33;;;;;;;5.30;4.90;;;20.40;45.00;;;;;;5020787;28;20335;-56
2022/05/15 05:23:59;;;;;;;3.87;3.67;;;20.40;45.00;;;;;;5011528;28;20230;-58
2022/05/15 05:26:25;;;;;;;4.30;4.10;;;20.30;45.00;;;;;;5020723;28;20443;-57
2022/05/15 05:28:50;;;;;;;4.67;4.37;;;20.40;45.00;;;;;;5016206;28;20569;-57
2022/05/15 05:31:16;;;;;;;4.93;4.67;;;20.40;45.00;;;;;;5032594;28;20314;-58
2022/05/15 05:33:42;;;;;;;5.90;5.40;;;20.30;45.00;;;;;;5015962;28;20212;-58
2022/05/15 05:36:08;;;;;;;5.20;4.80;;;20.30;44.60;;;;;;5013131;28;20236;-58
2022/05/15 05:38:34;;;;;;;6.10;5.80;;;20.40;44.20;;;;;;5016773;28;20901;-58
2022/05/15 05:41:00;;;;;;;4.90;4.70;;;20.40;43.80;;;;;;5016821;28;20589;-57
2022/05/15 05:43:26;;;;;;;5.30;4.90;;;20.40;43.50;;;;;;5017870;28;20487;-58
2022/05/15 05:45:51;;;;;;;4.93;4.70;;;20.40;43.20;;;;;;5015428;28;20281;-57
2022/05/15 05:48:17;;;;;;;5.07;4.73;;;20.40;43.10;;;;;;5014746;28;20246;-57
2022/05/15 05:50:42;;;;;;;5.50;5.10;;;20.40;42.80;;;;;;5011531;28;20231;-57
2022/05/15 05:53:09;;;;;;;4.80;4.50;;;20.40;42.60;;;;;;5021494;28;20232;-57
2022/05/15 05:55:35;;;;;;;5.20;4.90;;;20.40;42.50;;;;;;5016156;28;20227;-59
2022/05/15 05:58:02;;;;;;;5.40;5.10;;;20.40;42.20;;;;;;5015792;28;20873;-58
2022/05/15 06:00:32;;;;;;;5.03;4.80;;;20.40;42.10;;;;;;5012608;28;20451;-57
2022/05/15 06:05:46;;;;;;;5.40;5.10;;;20.50;42.00;;;;;;5012475;28;20484;-57
2022/05/15 06:08:13;;;;;;;5.20;4.87;;;20.50;42.00;;;;;;5015824;28;20526;-58
2022/05/15 06:10:38;;;;;;;4.30;4.10;;;20.50;42.00;;;;;;5015394;28;20441;-58
2022/05/15 06:13:04;;;;;;;4.70;4.40;;;20.50;42.10;;;;;;5012578;28;20450;-57
2022/05/15 06:15:30;;;;;;;4.60;4.30;;;20.50;42.30;;;;;;5014709;28;20229;-57
2022/05/15 06:18:00;;;;;;;4.43;4.23;;;20.50;42.50;;;;;;5008676;28;20234;-58
2022/05/15 06:20:26;;;;;;;4.73;4.43;;;20.50;42.60;;;;;;5007936;28;20241;-58
2022/05/15 06:22:52;;;;;;;5.23;4.70;;;20.50;43.50;;;;;;5007756;28;21033;-58
2022/05/15 06:25:17;;;;;;;4.33;4.03;;;20.50;43.60;;;;;;5014203;28;20441;-58
2022/05/15 06:27:43;;;;;;;4.27;4.07;;;20.50;42.80;;;;;;5013534;28;20564;-57
2022/05/15 06:30:09;;;;;;;4.40;4.13;;;20.50;42.90;;;;;;5012325;28;20654;-58
2022/05/15 06:32:35;;;;;;;4.93;4.67;;;20.50;43.00;;;;;;5011536;28;20680;-57
2022/05/15 06:35:00;;;;;;;3.90;3.70;;;20.50;43.00;;;;;;5017889;28;20485;-57
2022/05/15 06:37:26;;;;;;;6.90;4.00;;;20.50;43.10;;;;;;5016317;28;20688;-59
2022/05/15 06:39:52;;;;;;;4.93;4.13;;;20.50;43.10;;;;;;5013745;28;20601;-67
2022/05/15 06:42:18;;;;;;;5.20;4.63;;;20.50;43.90;;;;;;5013234;28;20465;-58
2022/05/15 06:44:43;;;;;;;5.17;4.77;;;20.50;43.20;;;;;;5014609;28;20748;-57
2022/05/15 06:47:09;;;;;;;6.20;5.60;;;20.50;43.20;;;;;;5015719;28;20228;-57
2022/05/15 06:49:35;;;;;;;4.73;4.53;;;20.50;43.20;;;;;;5016685;28;20578;-59
2022/05/15 06:52:00;;;;;;;5.20;4.77;;;20.60;43.30;;;;;;5016612;28;20621;-57
2022/05/15 06:54:27;;;;;;;4.93;4.60;;;20.60;43.30;;;;;;5018681;28;20312;-59
2022/05/15 06:59:37;;;;;;;5.27;4.80;;;20.60;43.50;;;;;;5016604;28;20426;-59
2022/05/15 07:02:02;;;;;;;5.37;4.90;;;20.50;43.50;;;;;;5015067;28;20461;-58
2022/05/15 07:04:28;;;;;;;4.83;4.53;;;20.50;43.60;;;;;;5019707;28;20223;-59
2022/05/15 07:06:53;;;;;;;5.40;4.80;;;20.50;43.60;;;;;;5018779;28;20247;-57
2022/05/15 07:09:19;;;;;;;8.03;5.70;;;20.50;43.60;;;;;;5022030;28;20227;-57
2022/05/15 07:11:44;;;;;;;5.67;5.13;;;20.50;43.70;;;;;;5019145;28;20266;-58
2022/05/15 07:14:11;;;;;;;6.50;4.30;;;20.50;43.80;;;;;;5018389;28;20269;-57
2022/05/15 07:16:36;;;;;;;5.10;4.70;;;20.50;43.80;;;;;;5014737;28;20223;-59
2022/05/15 07:19:02;;;;;;;5.07;4.67;;;20.50;43.80;;;;;;5017234;28;20456;-58
2022/05/15 07:21:28;;;;;;;5.40;4.90;;;20.50;43.90;;;;;;5019229;28;20314;-59
2022/05/15 07:23:54;;;;;;;4.80;4.50;;;20.50;43.90;;;;;;4994320;28;20239;-58
2022/05/15 07:26:20;;;;;;;4.67;4.37;;;20.50;43.90;;;;;;5011829;28;20448;-60
2022/05/15 07:28:50;;;;;;;5.57;5.17;;;20.50;44.00;;;;;;5012784;28;20251;-59
2022/05/15 07:31:18;;;;;;;5.17;4.77;;;20.50;44.00;;;;;;5013373;28;20247;-58
2022/05/15 07:33:45;;;;;;;4.30;4.10;;;20.50;44.00;;;;;;5009800;28;20463;-59
2022/05/15 07:36:10;;;;;;;5.10;4.80;;;20.50;44.00;;;;;;5014247;28;20459;-59
2022/05/15 07:38:36;;;;;;;5.20;4.90;;;20.50;44.10;;;;;;5019383;28;20872;-59
2022/05/15 07:41:03;;;;;;;4.77;4.43;;;20.50;44.10;;;;;;5019411;28;20348;-58
2022/05/15 07:43:29;;;;;;;6.10;5.50;;;20.50;44.10;;;;;;5018946;28;20227;-58
2022/05/15 07:45:54;;;;;;;4.63;4.30;;;20.50;44.10;;;;;;5017942;28;20532;-58
2022/05/15 07:48:20;;;;;;;5.43;5.03;;;20.50;44.10;;;;;;5016297;28;20712;-59
2022/05/15 07:50:48;;;;;;;7.63;5.00;;;20.50;44.10;;;;;;5023571;28;20219;-59
2022/05/15 07:53:14;;;;;;;5.77;5.27;;;20.50;44.10;;;;;;5021503;28;20257;-58
2022/05/15 07:55:39;;;;;;;5.10;4.80;;;20.50;44.20;;;;;;5011524;28;20858;-58
2022/05/15 07:58:05;;;;;;;5.27;4.97;;;20.50;44.20;;;;;;5018278;28;20544;-59
2022/05/15 08:00:31;;;;;;;5.00;4.77;;;20.50;44.20;;;;;;5014285;28;20236;-58
2022/05/15 08:03:08;;;;;;;5.07;4.77;;;20.50;44.20;;;;;;5018329;28;20326;-61
2022/05/15 08:08:20;;;;;;;5.10;4.77;;;20.50;44.20;;;;;;5016393;28;20588;-59
2022/05/15 08:10:46;;;;;;;5.27;4.90;;;20.50;44.30;;;;;;5015060;28;20511;-59
2022/05/15 08:13:18;;;;;;;4.97;4.67;;;20.50;44.30;;;;;;5018502;28;20223;-59
2022/05/15 08:15:44;;;;;;;4.60;4.40;;;20.50;44.30;;;;;;5003736;28;21048;-58
2022/05/15 08:23:46;;;;;;;5.30;4.83;;;20.50;44.30;;;;;;5010360;28;21005;-59
2022/05/15 08:26:12;;;;;;;6.93;4.57;;;20.50;44.40;;;;;;5016963;28;20455;-59
2022/05/15 08:28:38;;;;;;;4.77;4.47;;;20.50;44.30;;;;;;5018379;28;20530;-59
2022/05/15 08:31:06;;;;;;;4.43;4.23;;;20.50;44.30;;;;;;5020474;28;20475;-59
2022/05/15 08:33:33;;;;;;;5.10;4.63;;;20.50;44.30;;;;;;5013828;28;20232;-59
2022/05/15 08:35:58;;;;;;;4.67;4.27;;;20.50;44.40;;;;;;5018356;28;20502;-59
2022/05/15 08:38:25;;;;;;;5.27;4.70;;;20.50;44.30;;;;;;5016918;28;20839;-59
2022/05/15 08:40:55;;;;;;;5.20;4.80;;;20.50;45.10;;;;;;5019613;28;20465;-59
2022/05/15 08:43:27;;;;;;;4.80;4.50;;;20.50;44.50;;;;;;5016980;28;21886;-58
2022/05/15 08:46:04;;;;;;;4.57;4.27;;;20.50;44.30;;;;;;5013288;28;20552;-59
2022/05/15 08:48:34;;;;;;;4.50;4.10;;;20.50;44.30;;;;;;5016701;28;20939;-59
2022/05/15 08:51:01;;;;;;;4.40;4.20;;;20.50;44.40;;;;;;5015974;28;20536;-59
2022/05/15 08:53:35;;;;;;;5.03;4.63;;;20.50;44.40;;;;;;5017069;28;20471;-60
2022/05/15 08:56:06;;;;;;;4.23;3.93;;;20.50;44.40;;;;;;5014918;28;20461;-60
2022/05/15 08:58:46;;;;;;;4.47;4.07;;;20.50;44.40;;;;;;5018552;28;20441;-59
2022/05/15 09:01:17;;;;;;;4.73;4.53;;;20.50;44.40;;;;;;5017544;28;20514;-59
2022/05/15 09:03:42;;;;;;;4.40;4.20;;;20.50;44.50;;;;;;5015524;28;20445;-59
2022/05/15 09:06:23;;;;;;;4.60;4.30;;;20.50;44.40;;;;;;5019864;28;20814;-58
2022/05/15 09:09:12;;;;;;;4.63;4.43;;;20.50;44.40;;;;;;5010521;28;20215;-59
2022/05/15 09:11:57;;;;;;;5.97;4.50;;;20.50;44.40;;;;;;5015009;28;20454;-59
2022/05/15 09:14:36;;;;;;;5.00;4.80;;;20.50;44.30;;;;;;5011281;28;20456;-59
2022/05/15 09:17:24;;;;;;;5.20;4.90;;;20.50;44.50;;;;;;5016183;28;20469;-59
2022/05/15 09:19:57;;;;;;;4.70;4.50;;;20.50;44.40;;;;;;4971633;28;20438;-59
2022/05/15 09:22:29;;;;;;;5.00;4.70;;;20.50;44.50;;;;;;5015840;28;20439;-59
2022/05/15 09:24:55;;;;;;;5.53;5.03;;;20.50;44.50;;;;;;5017579;28;20448;-59
2022/05/15 09:27:26;;;;;;;4.90;4.60;;;20.50;44.50;;;;;;5018093;28;20448;-59
2022/05/15 09:29:57;;;;;;;4.50;4.30;;;20.50;44.50;;;;;;5011348;28;20463;-59
2022/05/15 09:32:42;;;;;;;5.10;4.70;;;20.50;44.50;;;;;;5020018;28;20423;-58
2022/05/15 09:35:35;;;;;;;4.90;4.60;;;20.50;44.50;;;;;;5010961;28;20447;-58
2022/05/15 09:43:36;;;;;;;4.10;3.80;;;20.50;44.10;;;;;;5013924;28;20550;-59
2022/05/15 09:46:15;;;;;;;4.23;3.87;;;20.50;43.70;;;;;;5013251;28;20494;-58
2022/05/15 09:49:13;;;;;;;4.40;3.50;;;20.50;43.30;;;;;;5015809;28;20481;-59
2022/05/15 09:51:47;;;;;;;9.03;4.10;;;20.50;43.10;;;;;;5008733;28;20875;-59
2022/05/15 09:54:43;;;;;;;4.97;4.33;;;20.50;42.80;;;;;;5011797;28;20784;-57
2022/05/15 09:57:08;;;;;;;11.80;5.27;;;20.50;42.60;;;;;;5013415;28;20799;-57
2022/05/15 09:59:34;;;;;;;10.57;4.23;;;20.60;42.50;;;;;;5013196;28;20453;-56
2022/05/15 10:02:00;;;;;;;13.70;4.57;;;20.60;42.30;;;;;;5015198;28;20338;-56
2022/05/15 10:04:37;;;;;;;6.80;3.80;;;20.60;42.20;;;;;;5015602;28;20254;-57
2022/05/15 10:07:06;;;;;;;9.07;4.30;;;20.60;42.20;;;;;;5005796;28;20227;-57
2022/05/15 10:09:37;;;;;;;12.03;5.33;;;20.60;42.10;;;;;;5013643;28;20424;-56
2022/05/15 10:12:30;;;;;;;7.40;4.77;;;20.60;42.20;;;;;;5015063;28;20467;-57
2022/05/15 10:15:06;;;;;;;5.70;5.13;;;20.60;42.30;;;;;;5014406;28;20818;-56
2022/05/15 10:17:32;;;;;;;11.40;5.70;;;20.60;42.40;;;;;;5016247;28;20851;-56
2022/05/15 10:20:18;;;;;;;11.13;5.90;;;20.60;42.50;;;;;;5010256;28;20447;-58
2022/05/15 10:22:59;;;;;;;5.00;4.63;;;20.60;42.60;;;;;;5017612;28;20519;-57
2022/05/15 10:25:56;;;;;;;8.30;5.33;;;20.60;42.70;;;;;;5014366;28;20480;-57
2022/05/15 10:28:40;;;;;;;5.30;4.90;;;20.60;43.00;;;;;;5013278;28;20472;-57
2022/05/15 10:31:16;;;;;;;5.80;5.40;;;20.60;43.10;;;;;;5018551;28;20875;-58
2022/05/15 10:33:46;;;;;;;6.13;5.57;;;20.60;43.20;;;;;;5019479;28;20519;-57
2022/05/15 10:36:39;;;;;;;6.23;5.93;;;20.60;43.30;;;;;;5020574;28;20506;-58
2022/05/15 10:39:16;;;;;;;5.30;4.70;;;20.60;43.40;;;;;;5021964;28;20989;-57
2022/05/15 10:41:58;;;;;;;6.00;5.50;;;20.60;43.50;;;;;;5013176;28;20449;-57
2022/05/15 10:44:42;;;;;;;6.10;5.70;;;20.60;43.60;;;;;;5018753;28;20444;-57
2022/05/15 10:47:20;;;;;;;6.10;5.60;;;20.60;43.60;;;;;;5016170;28;20431;-57
2022/05/15 10:49:45;;;;;;;5.80;5.40;;;20.60;43.70;;;;;;5020937;28;20989;-57
2022/05/15 10:52:34;;;;;;;5.40;5.00;;;20.60;43.80;;;;;;5020398;28;20457;-59
2022/05/15 10:58:35;;;;;;;5.77;5.47;;;20.60;43.80;;;;;;5017927;28;20426;-58
2022/05/15 11:01:41;;;;;;;5.30;5.00;;;20.60;43.80;;;;;;4930733;28;20996;-57
2022/05/15 11:04:42;;;;;;;5.87;5.40;;;20.50;43.80;;;;;;5022049;28;20457;-58
2022/05/15 11:07:29;;;;;;;5.70;5.30;;;20.50;43.80;;;;;;5016593;28;20449;-58
2022/05/15 11:09:58;;;;;;;6.23;5.83;;;20.50;43.90;;;;;;5016160;28;20529;-57
2022/05/15 11:12:38;;;;;;;6.17;5.77;;;20.50;43.90;;;;;;5018365;28;20484;-57
2022/05/15 11:15:53;;;;;;;5.53;5.23;;;20.50;43.90;;;;;;5019142;28;20492;-57
2022/05/15 11:18:31;;;;;;;6.50;6.00;;;20.50;43.90;;;;;;4916371;29;21044;-57
2022/05/15 11:21:01;;;;;;;6.07;5.67;;;20.50;44.00;;;;;;4917435;29;20517;-57
2022/05/15 11:23:43;;;;;;;5.87;5.50;;;20.50;44.00;;;;;;4982361;28;20436;-57
2022/05/15 11:26:22;;;;;;;6.10;5.60;;;20.50;44.00;;;;;;5018575;28;20449;-57
2022/05/15 11:28:54;;;;;;;6.00;5.70;;;20.50;44.00;;;;;;5017001;28;20835;-57
2022/05/15 11:31:22;;;;;;;6.10;5.60;;;20.50;44.00;;;;;;5021013;28;20423;-58
2022/05/15 11:33:51;;;;;;;5.80;5.50;;;20.50;44.10;;;;;;5012263;28;20536;-57
2022/05/15 11:36:22;;;;;;;6.40;6.00;;;20.50;44.10;;;;;;5016249;28;20823;-58
2022/05/15 11:39:17;;;;;;;6.20;5.80;;;20.50;44.10;;;;;;5019399;28;20448;-59
2022/05/15 11:41:42;;;;;;;6.77;5.70;;;20.50;44.10;;;;;;5010746;28;20443;-58
2022/05/15 11:44:37;;;;;;;5.70;5.40;;;20.50;44.20;;;;;;5019901;28;20453;-57
2022/05/15 11:47:15;;;;;;;6.50;5.97;;;20.50;44.20;;;;;;5016192;28;20235;-58
2022/05/15 11:49:59;;;;;;;5.47;5.17;;;20.50;44.30;;;;;;5012557;28;20464;-58
2022/05/15 11:52:39;;;;;;;6.30;5.90;;;20.50;44.30;;;;;;5017008;28;20456;-57
2022/05/15 11:55:33;;;;;;;5.80;5.50;;;20.50;44.20;;;;;;5011413;28;20468;-58
2022/05/15 11:58:16;;;;;;;5.30;5.00;;;20.50;44.20;;;;;;5015079;28;20457;-58
2022/05/15 12:00:42;;;;;;;5.40;5.10;;;20.50;44.30;;;;;;5017116;28;20501;-58
2022/05/15 12:03:41;;;;;;;4.80;4.50;;;20.50;44.30;;;;;;5023071;28;20457;-58
2022/05/15 12:06:10;;;;;;;7.83;4.93;;;20.50;44.20;;;;;;5014965;28;21030;-57
2022/05/15 12:08:41;;;;;;;6.10;5.63;;;20.50;44.30;;;;;;5011165;28;20432;-59
2022/05/15 12:11:19;;;;;;;4.90;4.70;;;20.50;44.30;;;;;;5015966;28;20477;-58
2022/05/15 12:13:46;;;;;;;6.60;6.20;;;20.50;44.30;;;;;;5018740;28;20967;-57
2022/05/15 12:16:14;;;;;;;5.47;5.27;;;20.50;44.30;;;;;;5013810;28;20520;-58
2022/05/15 12:18:41;;;;;;;5.40;5.10;;;20.50;44.30;;;;;;5015424;28;20456;-58
2022/05/15 12:21:08;;;;;;;5.83;5.40;;;20.50;44.30;;;;;;5018943;28;20846;-62
2022/05/15 12:23:37;;;;;;;5.30;5.00;;;20.50;44.30;;;;;;4988753;28;20814;-57
2022/05/15 12:26:24;;;;;;;5.37;5.07;;;20.50;44.30;;;;;;5017660;28;20973;-57
2022/05/15 12:29:08;;;;;;;5.57;5.20;;;20.50;44.30;;;;;;5017816;28;20464;-58
2022/05/15 12:31:45;;;;;;;5.90;5.50;;;20.50;44.30;;;;;;5017462;28;20463;-58
2022/05/15 12:34:28;;;;;;;5.40;5.10;;;20.50;44.40;;;;;;5017131;28;20480;-58
2022/05/15 12:37:04;;;;;;;6.27;5.87;;;20.50;44.40;;;;;;5012255;28;20440;-58
2022/05/15 12:39:34;;;;;;;5.70;5.37;;;20.50;44.30;;;;;;5013633;28;20484;-57
2022/05/15 12:42:09;;;;;;;4.50;4.20;;;20.50;44.40;;;;;;5013918;28;20510;-57
2022/05/15 12:44:38;;;;;;;5.60;5.03;;;20.50;44.30;;;;;;5013164;28;20441;-57
2022/05/15 12:47:07;;;;;;;5.50;5.20;;;20.50;44.20;;;;;;5013476;28;20946;-57
2022/05/15 12:49:39;;;;;;;5.87;5.43;;;20.50;44.20;;;;;;5016646;28;20440;-58
2022/05/15 12:52:25;;;;;;;5.93;5.53;;;20.50;44.30;;;;;;5017758;28;20416;-58
2022/05/15 12:55:04;;;;;;;6.00;5.70;;;20.50;44.30;;;;;;5013658;28;20476;-58
2022/05/15 12:57:30;;;;;;;5.60;5.30;;;20.50;44.30;;;;;;5014196;28;20432;-58
2022/05/15 12:59:56;;;;;;;7.37;6.87;;;20.50;44.40;;;;;;5015554;28;20465;-58
2022/05/15 13:02:30;;;;;;;4.47;4.20;;;20.50;44.30;;;;;;5018153;28;20236;-58
2022/05/15 13:04:59;;;;;;;5.93;5.60;;;20.50;44.30;;;;;;5030801;28;20988;-58
2022/05/15 13:07:30;;;;;;;4.47;4.00;;;20.50;44.30;;;;;;5017118;28;20825;-59
2022/05/15 13:10:04;;;;;;;4.73;4.43;;;20.50;43.90;;;;;;5017747;28;20506;-59
2022/05/15 13:12:30;;;;;;;4.40;3.87;;;20.50;43.70;;;;;;5016123;28;20445;-58
2022/05/15 13:14:58;;;;;;;4.43;4.13;;;20.50;43.40;;;;;;5012299;28;20536;-58
2022/05/15 13:17:36;;;;;;;4.43;4.03;;;20.60;43.30;;;;;;5017642;28;20457;-58
2022/05/15 13:20:14;;;;;;;4.10;3.90;;;20.60;43.10;;;;;;5016829;28;20440;-57
2022/05/15 13:22:40;;;;;;;4.53;4.00;;;20.60;42.90;;;;;;5012115;28;20457;-57